sensor_id;sensor_type;location;lat;lon;timestamp;P1;durP1;ratioP1;P2;durP2;ratioP2
73136;SDS011;61329;45.638;11.714;2022-08-04T00:04:02;4.15;;;1.40;;
73136;SDS011;61329;45.638;11.714;2022-08-04T00:06:48;3.10;;;1.50;;
73136;SDS011;61329;45.638;11.714;2022-08-04T00:09:29;3.95;;;1.60;;
73136;SDS011;61329;45.638;11.714;2022-08-04T00:12:21;3.35;;;1.70;;
73136;SDS011;61329;45.638;11.714;2022-08-04T00:14:55;4.30;;;1.98;;
73136;SDS011;61329;45.638;11.714;2022-08-04T00:17:31;3.20;;;1.63;;
73136;SDS011;61329;45.638;11.714;2022-08-04T00:20:28;2.90;;;1.70;;
73136;SDS011;61329;45.638;11.714;2022-08-04T00:22:56;3.95;;;1.92;;
73136;SDS011;61329;45.638;11.714;2022-08-04T00:25:23;2.72;;;1.50;;
73136;SDS011;61329;45.638;11.714;2022-08-04T00:27:49;3.28;;;1.40;;
73136;SDS011;61329;45.638;11.714;2022-08-04T00:30:15;3.28;;;1.50;;
73136;SDS011;61329;45.638;11.714;2022-08-04T00:32:42;3.43;;;1.37;;
73136;SDS011;61329;45.638;11.714;2022-08-04T00:35:08;2.75;;;1.48;;
73136;SDS011;61329;45.638;11.714;2022-08-04T00:37:37;2.70;;;1.50;;
73136;SDS011;61329;45.638;11.714;2022-08-04T00:40:12;3.67;;;1.70;;
73136;SDS011;61329;45.638;11.714;2022-08-04T00:45:59;2.97;;;1.50;;
73136;SDS011;61329;45.638;11.714;2022-08-04T00:54:20;3.70;;;1.50;;
73136;SDS011;61329;45.638;11.714;2022-08-04T00:57:27;2.65;;;1.30;;
73136;SDS011;61329;45.638;11.714;2022-08-04T01:00:14;2.73;;;1.47;;
73136;SDS011;61329;45.638;11.714;2022-08-04T01:05:30;2.92;;;1.60;;
73136;SDS011;61329;45.638;11.714;2022-08-04T01:13:45;3.17;;;1.27;;
73136;SDS011;61329;45.638;11.714;2022-08-04T01:16:24;2.40;;;1.30;;
73136;SDS011;61329;45.638;11.714;2022-08-04T01:18:54;3.08;;;1.42;;
73136;SDS011;61329;45.638;11.714;2022-08-04T01:29:23;2.83;;;1.52;;
73136;SDS011;61329;45.638;11.714;2022-08-04T01:34:46;3.33;;;1.30;;
73136;SDS011;61329;45.638;11.714;2022-08-04T01:37:53;3.10;;;1.38;;
73136;SDS011;61329;45.638;11.714;2022-08-04T01:40:09;2.33;;;1.23;;
73136;SDS011;61329;45.638;11.714;2022-08-04T01:42:38;2.25;;;1.30;;
73136;SDS011;61329;45.638;11.714;2022-08-04T01:45:07;3.13;;;1.50;;
73136;SDS011;61329;45.638;11.714;2022-08-04T01:47:35;3.78;;;1.40;;
73136;SDS011;61329;45.638;11.714;2022-08-04T01:50:06;3.10;;;1.52;;
73136;SDS011;61329;45.638;11.714;2022-08-04T01:52:36;2.87;;;1.40;;
73136;SDS011;61329;45.638;11.714;2022-08-04T01:55:05;3.00;;;1.50;;
73136;SDS011;61329;45.638;11.714;2022-08-04T01:57:34;3.20;;;1.35;;
73136;SDS011;61329;45.638;11.714;2022-08-04T02:00:05;2.42;;;1.40;;
73136;SDS011;61329;45.638;11.714;2022-08-04T02:02:32;2.03;;;1.20;;
73136;SDS011;61329;45.638;11.714;2022-08-04T02:05:00;2.97;;;1.30;;
73136;SDS011;61329;45.638;11.714;2022-08-04T02:16:15;2.67;;;1.40;;
73136;SDS011;61329;45.638;11.714;2022-08-04T02:21:42;3.28;;;1.60;;
73136;SDS011;61329;45.638;11.714;2022-08-04T02:24:13;2.83;;;1.40;;
73136;SDS011;61329;45.638;11.714;2022-08-04T02:26:45;4.38;;;1.50;;
73136;SDS011;61329;45.638;11.714;2022-08-04T02:32:04;3.23;;;1.60;;
73136;SDS011;61329;45.638;11.714;2022-08-04T02:37:47;2.63;;;1.30;;
73136;SDS011;61329;45.638;11.714;2022-08-04T02:40:19;2.42;;;1.30;;
73136;SDS011;61329;45.638;11.714;2022-08-04T02:42:49;2.92;;;1.48;;
73136;SDS011;61329;45.638;11.714;2022-08-04T02:45:15;2.63;;;1.30;;
73136;SDS011;61329;45.638;11.714;2022-08-04T02:47:44;2.65;;;1.33;;
73136;SDS011;61329;45.638;11.714;2022-08-04T02:50:13;3.55;;;1.52;;
73136;SDS011;61329;45.638;11.714;2022-08-04T02:52:41;2.55;;;1.33;;
73136;SDS011;61329;45.638;11.714;2022-08-04T02:55:08;3.33;;;1.80;;
73136;SDS011;61329;45.638;11.714;2022-08-04T02:57:39;3.47;;;1.57;;
73136;SDS011;61329;45.638;11.714;2022-08-04T03:00:27;4.45;;;1.77;;
73136;SDS011;61329;45.638;11.714;2022-08-04T03:16:46;3.80;;;1.83;;
73136;SDS011;61329;45.638;11.714;2022-08-04T03:19:37;3.13;;;1.63;;
73136;SDS011;61329;45.638;11.714;2022-08-04T03:37:24;3.80;;;2.05;;
73136;SDS011;61329;45.638;11.714;2022-08-04T03:40:52;4.73;;;1.77;;
73136;SDS011;61329;45.638;11.714;2022-08-04T04:00:08;3.83;;;1.80;;
73136;SDS011;61329;45.638;11.714;2022-08-04T04:02:49;2.45;;;1.30;;
73136;SDS011;61329;45.638;11.714;2022-08-04T04:05:45;3.33;;;1.60;;
73136;SDS011;61329;45.638;11.714;2022-08-04T04:14:06;3.40;;;1.83;;
73136;SDS011;61329;45.638;11.714;2022-08-04T04:16:37;4.10;;;1.75;;
73136;SDS011;61329;45.638;11.714;2022-08-04T04:19:36;4.00;;;1.90;;
73136;SDS011;61329;45.638;11.714;2022-08-04T04:44:03;3.65;;;1.77;;
73136;SDS011;61329;45.638;11.714;2022-08-04T04:50:03;3.83;;;1.98;;
73136;SDS011;61329;45.638;11.714;2022-08-04T04:55:18;4.72;;;1.92;;
73136;SDS011;61329;45.638;11.714;2022-08-04T04:57:49;6.90;;;2.40;;
73136;SDS011;61329;45.638;11.714;2022-08-04T05:00:16;7.10;;;2.13;;
73136;SDS011;61329;45.638;11.714;2022-08-04T05:05:52;4.68;;;1.90;;
73136;SDS011;61329;45.638;11.714;2022-08-04T05:08:25;4.43;;;2.08;;
73136;SDS011;61329;45.638;11.714;2022-08-04T05:13:45;8.90;;;2.17;;
73136;SDS011;61329;45.638;11.714;2022-08-04T05:19:47;4.80;;;1.90;;
73136;SDS011;61329;45.638;11.714;2022-08-04T05:24:15;5.47;;;2.20;;
73136;SDS011;61329;45.638;11.714;2022-08-04T05:26:47;5.33;;;1.73;;
73136;SDS011;61329;45.638;11.714;2022-08-04T05:29:27;4.78;;;2.00;;
73136;SDS011;61329;45.638;11.714;2022-08-04T05:31:58;4.25;;;2.45;;
73136;SDS011;61329;45.638;11.714;2022-08-04T05:34:30;5.40;;;2.00;;
73136;SDS011;61329;45.638;11.714;2022-08-04T05:37:07;5.70;;;2.55;;
73136;SDS011;61329;45.638;11.714;2022-08-04T05:39:37;4.63;;;1.97;;
73136;SDS011;61329;45.638;11.714;2022-08-04T05:42:10;4.57;;;2.10;;
73136;SDS011;61329;45.638;11.714;2022-08-04T05:44:38;3.80;;;2.00;;
73136;SDS011;61329;45.638;11.714;2022-08-04T05:47:05;4.80;;;1.92;;
73136;SDS011;61329;45.638;11.714;2022-08-04T05:49:33;3.45;;;1.90;;
73136;SDS011;61329;45.638;11.714;2022-08-04T05:52:04;4.40;;;1.73;;
73136;SDS011;61329;45.638;11.714;2022-08-04T05:54:39;4.30;;;1.90;;
73136;SDS011;61329;45.638;11.714;2022-08-04T05:57:07;5.25;;;2.03;;
73136;SDS011;61329;45.638;11.714;2022-08-04T05:59:35;4.30;;;2.00;;
73136;SDS011;61329;45.638;11.714;2022-08-04T06:02:03;3.83;;;2.00;;
73136;SDS011;61329;45.638;11.714;2022-08-04T06:04:30;6.23;;;2.60;;
73136;SDS011;61329;45.638;11.714;2022-08-04T06:07:07;4.97;;;2.05;;
73136;SDS011;61329;45.638;11.714;2022-08-04T06:09:36;7.07;;;2.40;;
73136;SDS011;61329;45.638;11.714;2022-08-04T06:12:11;4.30;;;2.20;;
73136;SDS011;61329;45.638;11.714;2022-08-04T06:14:42;5.50;;;2.50;;
73136;SDS011;61329;45.638;11.714;2022-08-04T06:17:12;8.10;;;1.93;;
73136;SDS011;61329;45.638;11.714;2022-08-04T06:19:45;3.13;;;1.85;;
73136;SDS011;61329;45.638;11.714;2022-08-04T06:22:15;4.30;;;2.00;;
73136;SDS011;61329;45.638;11.714;2022-08-04T06:24:42;5.65;;;2.00;;
73136;SDS011;61329;45.638;11.714;2022-08-04T06:27:12;3.83;;;1.73;;
73136;SDS011;61329;45.638;11.714;2022-08-04T06:29:39;4.20;;;2.03;;
73136;SDS011;61329;45.638;11.714;2022-08-04T06:32:19;5.13;;;2.22;;
73136;SDS011;61329;45.638;11.714;2022-08-04T06:35:02;3.67;;;1.70;;
73136;SDS011;61329;45.638;11.714;2022-08-04T06:37:39;5.68;;;1.90;;
73136;SDS011;61329;45.638;11.714;2022-08-04T06:40:06;4.50;;;1.85;;
73136;SDS011;61329;45.638;11.714;2022-08-04T06:42:34;3.92;;;1.88;;
73136;SDS011;61329;45.638;11.714;2022-08-04T06:45:01;4.05;;;1.90;;
73136;SDS011;61329;45.638;11.714;2022-08-04T06:47:28;4.73;;;1.93;;
73136;SDS011;61329;45.638;11.714;2022-08-04T06:49:55;4.50;;;2.00;;
73136;SDS011;61329;45.638;11.714;2022-08-04T06:52:22;5.30;;;2.15;;
73136;SDS011;61329;45.638;11.714;2022-08-04T06:54:52;6.10;;;1.90;;
73136;SDS011;61329;45.638;11.714;2022-08-04T06:57:21;4.55;;;1.90;;
73136;SDS011;61329;45.638;11.714;2022-08-04T06:59:55;3.30;;;1.80;;
73136;SDS011;61329;45.638;11.714;2022-08-04T07:02:25;3.65;;;1.95;;
73136;SDS011;61329;45.638;11.714;2022-08-04T07:04:54;3.47;;;1.70;;
73136;SDS011;61329;45.638;11.714;2022-08-04T07:07:22;4.45;;;1.80;;
73136;SDS011;61329;45.638;11.714;2022-08-04T07:09:49;5.05;;;1.58;;
73136;SDS011;61329;45.638;11.714;2022-08-04T07:12:15;4.30;;;1.80;;
73136;SDS011;61329;45.638;11.714;2022-08-04T07:14:45;4.38;;;1.70;;
73136;SDS011;61329;45.638;11.714;2022-08-04T07:17:12;4.38;;;1.67;;
73136;SDS011;61329;45.638;11.714;2022-08-04T07:19:40;3.35;;;1.77;;
73136;SDS011;61329;45.638;11.714;2022-08-04T07:22:06;4.37;;;1.60;;
73136;SDS011;61329;45.638;11.714;2022-08-04T07:24:34;3.50;;;1.90;;
73136;SDS011;61329;45.638;11.714;2022-08-04T07:27:02;4.57;;;1.90;;
73136;SDS011;61329;45.638;11.714;2022-08-04T07:29:29;4.00;;;1.70;;
73136;SDS011;61329;45.638;11.714;2022-08-04T07:31:57;4.25;;;1.70;;
73136;SDS011;61329;45.638;11.714;2022-08-04T07:34:24;4.17;;;1.80;;
73136;SDS011;61329;45.638;11.714;2022-08-04T07:36:54;3.88;;;1.77;;
73136;SDS011;61329;45.638;11.714;2022-08-04T07:39:23;3.33;;;1.60;;
73136;SDS011;61329;45.638;11.714;2022-08-04T07:41:50;4.25;;;1.77;;
73136;SDS011;61329;45.638;11.714;2022-08-04T07:44:17;3.42;;;1.60;;
73136;SDS011;61329;45.638;11.714;2022-08-04T07:46:44;3.27;;;1.70;;
73136;SDS011;61329;45.638;11.714;2022-08-04T07:49:10;3.65;;;1.73;;
73136;SDS011;61329;45.638;11.714;2022-08-04T07:51:37;4.18;;;1.77;;
73136;SDS011;61329;45.638;11.714;2022-08-04T07:54:05;3.80;;;1.70;;
73136;SDS011;61329;45.638;11.714;2022-08-04T07:56:36;4.53;;;1.70;;
73136;SDS011;61329;45.638;11.714;2022-08-04T07:59:04;3.63;;;1.50;;
73136;SDS011;61329;45.638;11.714;2022-08-04T08:01:31;3.70;;;1.67;;
73136;SDS011;61329;45.638;11.714;2022-08-04T08:03:59;3.33;;;1.60;;
73136;SDS011;61329;45.638;11.714;2022-08-04T08:06:25;3.95;;;1.67;;
73136;SDS011;61329;45.638;11.714;2022-08-04T08:08:53;3.60;;;1.73;;
73136;SDS011;61329;45.638;11.714;2022-08-04T08:11:20;2.97;;;1.40;;
73136;SDS011;61329;45.638;11.714;2022-08-04T08:13:46;3.28;;;1.70;;
73136;SDS011;61329;45.638;11.714;2022-08-04T08:16:13;3.05;;;1.60;;
73136;SDS011;61329;45.638;11.714;2022-08-04T08:18:38;4.13;;;1.90;;
73136;SDS011;61329;45.638;11.714;2022-08-04T08:21:04;2.80;;;1.30;;
73136;SDS011;61329;45.638;11.714;2022-08-04T08:23:33;2.77;;;1.50;;
73136;SDS011;61329;45.638;11.714;2022-08-04T08:25:59;3.50;;;1.48;;
73136;SDS011;61329;45.638;11.714;2022-08-04T08:28:36;3.28;;;1.65;;
73136;SDS011;61329;45.638;11.714;2022-08-04T08:31:02;2.70;;;1.50;;
73136;SDS011;61329;45.638;11.714;2022-08-04T08:33:28;2.67;;;1.27;;
73136;SDS011;61329;45.638;11.714;2022-08-04T08:36:03;3.03;;;1.52;;
73136;SDS011;61329;45.638;11.714;2022-08-04T09:08:30;3.33;;;1.37;;
73136;SDS011;61329;45.638;11.714;2022-08-04T09:11:18;3.92;;;1.40;;
73136;SDS011;61329;45.638;11.714;2022-08-04T09:13:50;3.70;;;1.58;;
73136;SDS011;61329;45.638;11.714;2022-08-04T09:19:23;3.25;;;1.60;;
73136;SDS011;61329;45.638;11.714;2022-08-04T09:25:06;3.53;;;1.50;;
73136;SDS011;61329;45.638;11.714;2022-08-04T09:27:45;4.18;;;1.92;;
73136;SDS011;61329;45.638;11.714;2022-08-04T09:30:28;2.67;;;1.40;;
73136;SDS011;61329;45.638;11.714;2022-08-04T09:35:58;2.60;;;1.50;;
73136;SDS011;61329;45.638;11.714;2022-08-04T09:38:59;2.30;;;1.17;;
73136;SDS011;61329;45.638;11.714;2022-08-04T09:41:54;3.30;;;1.55;;
73136;SDS011;61329;45.638;11.714;2022-08-04T09:44:45;4.72;;;1.50;;
73136;SDS011;61329;45.638;11.714;2022-08-04T09:47:28;2.60;;;1.30;;
73136;SDS011;61329;45.638;11.714;2022-08-04T09:50:04;3.53;;;1.40;;
73136;SDS011;61329;45.638;11.714;2022-08-04T10:00:50;2.50;;;1.40;;
73136;SDS011;61329;45.638;11.714;2022-08-04T10:03:26;2.93;;;1.23;;
73136;SDS011;61329;45.638;11.714;2022-08-04T10:06:05;3.63;;;1.40;;
73136;SDS011;61329;45.638;11.714;2022-08-04T10:14:19;2.30;;;1.10;;
73136;SDS011;61329;45.638;11.714;2022-08-04T10:17:00;2.27;;;1.20;;
73136;SDS011;61329;45.638;11.714;2022-08-04T10:20:02;2.90;;;1.23;;
73136;SDS011;61329;45.638;11.714;2022-08-04T10:22:38;3.30;;;1.30;;
73136;SDS011;61329;45.638;11.714;2022-08-04T10:28:04;3.47;;;1.20;;
73136;SDS011;61329;45.638;11.714;2022-08-04T10:30:35;2.97;;;1.40;;
73136;SDS011;61329;45.638;11.714;2022-08-04T10:41:36;4.07;;;1.20;;
73136;SDS011;61329;45.638;11.714;2022-08-04T10:47:13;2.13;;;1.00;;
73136;SDS011;61329;45.638;11.714;2022-08-04T10:49:44;4.22;;;1.20;;
73136;SDS011;61329;45.638;11.714;2022-08-04T11:00:35;4.47;;;1.65;;
73136;SDS011;61329;45.638;11.714;2022-08-04T11:05:56;3.10;;;1.30;;
73136;SDS011;61329;45.638;11.714;2022-08-04T11:08:40;2.57;;;1.30;;
73136;SDS011;61329;45.638;11.714;2022-08-04T11:11:14;1.52;;;1.00;;
73136;SDS011;61329;45.638;11.714;2022-08-04T11:13:43;4.32;;;1.20;;
73136;SDS011;61329;45.638;11.714;2022-08-04T11:16:26;3.58;;;1.58;;
73136;SDS011;61329;45.638;11.714;2022-08-04T11:24:34;4.10;;;1.20;;
73136;SDS011;61329;45.638;11.714;2022-08-04T11:30:08;4.80;;;1.60;;
73136;SDS011;61329;45.638;11.714;2022-08-04T11:32:39;3.95;;;1.50;;
73136;SDS011;61329;45.638;11.714;2022-08-04T11:35:14;2.93;;;1.20;;
73136;SDS011;61329;45.638;11.714;2022-08-04T11:38:10;3.90;;;1.55;;
73136;SDS011;61329;45.638;11.714;2022-08-04T11:40:36;4.05;;;1.52;;
73136;SDS011;61329;45.638;11.714;2022-08-04T11:43:18;5.43;;;1.77;;
73136;SDS011;61329;45.638;11.714;2022-08-04T11:45:59;4.93;;;1.50;;
73136;SDS011;61329;45.638;11.714;2022-08-04T11:48:49;3.60;;;1.20;;
73136;SDS011;61329;45.638;11.714;2022-08-04T11:51:45;3.35;;;1.40;;
73136;SDS011;61329;45.638;11.714;2022-08-04T11:54:25;4.18;;;1.50;;
73136;SDS011;61329;45.638;11.714;2022-08-04T11:56:52;4.25;;;1.33;;
73136;SDS011;61329;45.638;11.714;2022-08-04T11:59:21;3.53;;;1.38;;
73136;SDS011;61329;45.638;11.714;2022-08-04T12:02:26;3.57;;;1.20;;
73136;SDS011;61329;45.638;11.714;2022-08-04T12:05:07;3.35;;;1.20;;
73136;SDS011;61329;45.638;11.714;2022-08-04T12:13:47;3.80;;;1.30;;
73136;SDS011;61329;45.638;11.714;2022-08-04T12:19:56;4.18;;;1.90;;
73136;SDS011;61329;45.638;11.714;2022-08-04T12:22:27;4.28;;;1.30;;
73136;SDS011;61329;45.638;11.714;2022-08-04T12:25:08;3.53;;;1.42;;
73136;SDS011;61329;45.638;11.714;2022-08-04T12:27:46;3.78;;;1.58;;
73136;SDS011;61329;45.638;11.714;2022-08-04T12:30:20;4.50;;;1.50;;
73136;SDS011;61329;45.638;11.714;2022-08-04T12:38:14;4.25;;;1.50;;
73136;SDS011;61329;45.638;11.714;2022-08-04T12:43:42;2.80;;;1.20;;
73136;SDS011;61329;45.638;11.714;2022-08-04T12:46:21;3.92;;;1.48;;
73136;SDS011;61329;45.638;11.714;2022-08-04T12:48:50;4.82;;;1.50;;
73136;SDS011;61329;45.638;11.714;2022-08-04T12:51:17;3.92;;;1.50;;
73136;SDS011;61329;45.638;11.714;2022-08-04T12:53:44;3.67;;;1.30;;
73136;SDS011;61329;45.638;11.714;2022-08-04T12:56:12;3.27;;;1.30;;
73136;SDS011;61329;45.638;11.714;2022-08-04T12:58:43;4.20;;;1.60;;
73136;SDS011;61329;45.638;11.714;2022-08-04T13:01:13;3.85;;;1.42;;
73136;SDS011;61329;45.638;11.714;2022-08-04T13:04:29;3.40;;;1.23;;
73136;SDS011;61329;45.638;11.714;2022-08-04T13:06:40;3.95;;;1.40;;
73136;SDS011;61329;45.638;11.714;2022-08-04T13:09:18;5.23;;;1.50;;
73136;SDS011;61329;45.638;11.714;2022-08-04T13:11:52;4.60;;;1.20;;
73136;SDS011;61329;45.638;11.714;2022-08-04T13:14:22;4.43;;;1.33;;
73136;SDS011;61329;45.638;11.714;2022-08-04T13:16:56;2.42;;;1.15;;
73136;SDS011;61329;45.638;11.714;2022-08-04T13:19:24;3.70;;;1.35;;
73136;SDS011;61329;45.638;11.714;2022-08-04T13:21:51;4.00;;;1.67;;
73136;SDS011;61329;45.638;11.714;2022-08-04T13:24:19;3.10;;;1.40;;
73136;SDS011;61329;45.638;11.714;2022-08-04T13:26:56;2.72;;;1.38;;
73136;SDS011;61329;45.638;11.714;2022-08-04T13:29:40;4.03;;;1.50;;
73136;SDS011;61329;45.638;11.714;2022-08-04T13:32:08;3.67;;;1.50;;
73136;SDS011;61329;45.638;11.714;2022-08-04T13:34:35;4.57;;;1.50;;
73136;SDS011;61329;45.638;11.714;2022-08-04T13:37:07;3.03;;;1.15;;
73136;SDS011;61329;45.638;11.714;2022-08-04T13:39:35;2.88;;;1.30;;
73136;SDS011;61329;45.638;11.714;2022-08-04T13:42:08;3.88;;;1.58;;
73136;SDS011;61329;45.638;11.714;2022-08-04T13:44:51;3.55;;;1.20;;
73136;SDS011;61329;45.638;11.714;2022-08-04T13:47:28;2.77;;;1.17;;
73136;SDS011;61329;45.638;11.714;2022-08-04T13:50:08;3.55;;;1.42;;
73136;SDS011;61329;45.638;11.714;2022-08-04T13:52:50;3.67;;;1.50;;
73136;SDS011;61329;45.638;11.714;2022-08-04T13:55:23;5.53;;;1.30;;
73136;SDS011;61329;45.638;11.714;2022-08-04T13:57:58;3.38;;;1.40;;
73136;SDS011;61329;45.638;11.714;2022-08-04T14:00:38;5.17;;;1.50;;
73136;SDS011;61329;45.638;11.714;2022-08-04T14:03:17;3.53;;;1.50;;
73136;SDS011;61329;45.638;11.714;2022-08-04T14:06:12;3.33;;;1.23;;
73136;SDS011;61329;45.638;11.714;2022-08-04T14:11:41;3.75;;;1.50;;
73136;SDS011;61329;45.638;11.714;2022-08-04T14:14:14;2.83;;;1.20;;
73136;SDS011;61329;45.638;11.714;2022-08-04T14:17:07;2.92;;;1.33;;
73136;SDS011;61329;45.638;11.714;2022-08-04T14:25:03;2.90;;;1.17;;
73136;SDS011;61329;45.638;11.714;2022-08-04T14:27:47;2.83;;;1.00;;
73136;SDS011;61329;45.638;11.714;2022-08-04T14:30:25;2.45;;;1.15;;
73136;SDS011;61329;45.638;11.714;2022-08-04T14:33:06;2.60;;;1.10;;
73136;SDS011;61329;45.638;11.714;2022-08-04T14:35:55;4.22;;;1.23;;
73136;SDS011;61329;45.638;11.714;2022-08-04T14:38:28;4.57;;;1.63;;
73136;SDS011;61329;45.638;11.714;2022-08-04T14:41:12;3.23;;;1.10;;
73136;SDS011;61329;45.638;11.714;2022-08-04T14:43:54;3.90;;;1.40;;
73136;SDS011;61329;45.638;11.714;2022-08-04T14:46:25;4.13;;;1.10;;
73136;SDS011;61329;45.638;11.714;2022-08-04T14:49:11;2.67;;;1.00;;
73136;SDS011;61329;45.638;11.714;2022-08-04T14:51:42;4.07;;;1.10;;
73136;SDS011;61329;45.638;11.714;2022-08-04T14:54:25;2.80;;;1.30;;
73136;SDS011;61329;45.638;11.714;2022-08-04T14:56:57;2.25;;;1.10;;
73136;SDS011;61329;45.638;11.714;2022-08-04T14:59:26;3.58;;;1.23;;
73136;SDS011;61329;45.638;11.714;2022-08-04T15:02:04;2.85;;;1.17;;
73136;SDS011;61329;45.638;11.714;2022-08-04T15:04:30;2.83;;;1.02;;
73136;SDS011;61329;45.638;11.714;2022-08-04T15:06:57;2.00;;;0.90;;
73136;SDS011;61329;45.638;11.714;2022-08-04T15:09:25;4.35;;;1.20;;
73136;SDS011;61329;45.638;11.714;2022-08-04T15:11:51;2.88;;;1.50;;
73136;SDS011;61329;45.638;11.714;2022-08-04T15:14:17;2.47;;;1.17;;
73136;SDS011;61329;45.638;11.714;2022-08-04T15:16:45;2.92;;;1.27;;
73136;SDS011;61329;45.638;11.714;2022-08-04T15:19:11;5.47;;;1.33;;
73136;SDS011;61329;45.638;11.714;2022-08-04T15:21:38;3.05;;;1.30;;
73136;SDS011;61329;45.638;11.714;2022-08-04T15:24:04;2.45;;;1.25;;
73136;SDS011;61329;45.638;11.714;2022-08-04T15:27:03;2.67;;;1.23;;
73136;SDS011;61329;45.638;11.714;2022-08-04T15:29:33;3.90;;;1.25;;
73136;SDS011;61329;45.638;11.714;2022-08-04T15:32:05;3.70;;;1.23;;
73136;SDS011;61329;45.638;11.714;2022-08-04T15:34:47;4.18;;;1.20;;
73136;SDS011;61329;45.638;11.714;2022-08-04T15:37:36;3.92;;;1.20;;
73136;SDS011;61329;45.638;11.714;2022-08-04T15:40:10;2.60;;;1.00;;
73136;SDS011;61329;45.638;11.714;2022-08-04T15:42:58;3.67;;;1.30;;
73136;SDS011;61329;45.638;11.714;2022-08-04T15:45:56;3.47;;;1.17;;
73136;SDS011;61329;45.638;11.714;2022-08-04T15:48:24;5.25;;;1.50;;
73136;SDS011;61329;45.638;11.714;2022-08-04T15:53:20;3.45;;;1.10;;
73136;SDS011;61329;45.638;11.714;2022-08-04T15:55:46;3.50;;;1.30;;
73136;SDS011;61329;45.638;11.714;2022-08-04T15:58:13;4.90;;;1.15;;
73136;SDS011;61329;45.638;11.714;2022-08-04T16:24:19;3.42;;;1.10;;
73136;SDS011;61329;45.638;11.714;2022-08-04T16:26:59;2.67;;;1.10;;
73136;SDS011;61329;45.638;11.714;2022-08-04T16:29:42;3.97;;;1.20;;
73136;SDS011;61329;45.638;11.714;2022-08-04T16:32:12;3.93;;;1.10;;
73136;SDS011;61329;45.638;11.714;2022-08-04T16:37:35;4.38;;;1.20;;
73136;SDS011;61329;45.638;11.714;2022-08-04T16:42:53;3.80;;;1.40;;
73136;SDS011;61329;45.638;11.714;2022-08-04T16:45:46;4.33;;;1.03;;
73136;SDS011;61329;45.638;11.714;2022-08-04T16:48:28;4.57;;;1.50;;
73136;SDS011;61329;45.638;11.714;2022-08-04T16:53:40;3.35;;;1.20;;
73136;SDS011;61329;45.638;11.714;2022-08-04T16:56:09;3.83;;;1.13;;
73136;SDS011;61329;45.638;11.714;2022-08-04T16:58:36;4.10;;;1.20;;
73136;SDS011;61329;45.638;11.714;2022-08-04T17:01:09;4.45;;;1.10;;
73136;SDS011;61329;45.638;11.714;2022-08-04T17:03:38;4.15;;;1.10;;
73136;SDS011;61329;45.638;11.714;2022-08-04T17:06:09;3.53;;;1.30;;
73136;SDS011;61329;45.638;11.714;2022-08-04T17:08:42;3.55;;;1.27;;
73136;SDS011;61329;45.638;11.714;2022-08-04T17:11:09;3.73;;;1.20;;
73136;SDS011;61329;45.638;11.714;2022-08-04T17:13:40;3.22;;;1.33;;
73136;SDS011;61329;45.638;11.714;2022-08-04T17:16:08;3.13;;;1.20;;
73136;SDS011;61329;45.638;11.714;2022-08-04T17:18:40;5.28;;;1.38;;
73136;SDS011;61329;45.638;11.714;2022-08-04T17:21:15;3.22;;;1.08;;
73136;SDS011;61329;45.638;11.714;2022-08-04T17:23:48;5.40;;;1.17;;
73136;SDS011;61329;45.638;11.714;2022-08-04T17:26:23;3.15;;;1.30;;
73136;SDS011;61329;45.638;11.714;2022-08-04T17:28:51;2.80;;;1.25;;
73136;SDS011;61329;45.638;11.714;2022-08-04T17:31:19;4.60;;;1.17;;
73136;SDS011;61329;45.638;11.714;2022-08-04T17:33:47;3.15;;;1.20;;
73136;SDS011;61329;45.638;11.714;2022-08-04T17:36:15;2.90;;;1.10;;
73136;SDS011;61329;45.638;11.714;2022-08-04T17:38:45;3.63;;;1.00;;
73136;SDS011;61329;45.638;11.714;2022-08-04T17:41:15;2.47;;;1.05;;
73136;SDS011;61329;45.638;11.714;2022-08-04T17:43:54;3.95;;;1.30;;
73136;SDS011;61329;45.638;11.714;2022-08-04T17:46:23;3.53;;;1.15;;
73136;SDS011;61329;45.638;11.714;2022-08-04T17:49:18;4.17;;;1.50;;
73136;SDS011;61329;45.638;11.714;2022-08-04T17:51:46;3.10;;;1.20;;
73136;SDS011;61329;45.638;11.714;2022-08-04T17:54:17;2.55;;;1.20;;
73136;SDS011;61329;45.638;11.714;2022-08-04T17:56:46;4.47;;;1.33;;
73136;SDS011;61329;45.638;11.714;2022-08-04T17:59:15;3.67;;;1.25;;
73136;SDS011;61329;45.638;11.714;2022-08-04T18:04:21;4.05;;;1.00;;
73136;SDS011;61329;45.638;11.714;2022-08-04T18:06:55;3.50;;;1.17;;
73136;SDS011;61329;45.638;11.714;2022-08-04T18:09:31;2.40;;;1.05;;
73136;SDS011;61329;45.638;11.714;2022-08-04T18:12:03;3.38;;;1.10;;
73136;SDS011;61329;45.638;11.714;2022-08-04T18:14:38;3.70;;;1.30;;
73136;SDS011;61329;45.638;11.714;2022-08-04T18:17:05;2.75;;;1.10;;
73136;SDS011;61329;45.638;11.714;2022-08-04T18:19:32;2.70;;;1.20;;
73136;SDS011;61329;45.638;11.714;2022-08-04T18:22:01;3.92;;;1.35;;
73136;SDS011;61329;45.638;11.714;2022-08-04T18:24:28;2.88;;;1.10;;
73136;SDS011;61329;45.638;11.714;2022-08-04T18:26:55;3.80;;;1.27;;
73136;SDS011;61329;45.638;11.714;2022-08-04T18:29:21;3.35;;;1.10;;
73136;SDS011;61329;45.638;11.714;2022-08-04T18:31:47;4.68;;;1.30;;
73136;SDS011;61329;45.638;11.714;2022-08-04T18:34:13;4.20;;;1.13;;
73136;SDS011;61329;45.638;11.714;2022-08-04T18:36:39;2.78;;;1.10;;
73136;SDS011;61329;45.638;11.714;2022-08-04T18:39:07;2.92;;;1.10;;
73136;SDS011;61329;45.638;11.714;2022-08-04T18:41:52;2.70;;;1.05;;
73136;SDS011;61329;45.638;11.714;2022-08-04T18:44:19;3.73;;;1.20;;
73136;SDS011;61329;45.638;11.714;2022-08-04T18:46:45;4.15;;;1.23;;
73136;SDS011;61329;45.638;11.714;2022-08-04T18:49:11;2.85;;;0.95;;
73136;SDS011;61329;45.638;11.714;2022-08-04T18:51:47;3.17;;;1.02;;
73136;SDS011;61329;45.638;11.714;2022-08-04T18:54:13;3.27;;;1.00;;
73136;SDS011;61329;45.638;11.714;2022-08-04T18:56:38;3.83;;;1.15;;
73136;SDS011;61329;45.638;11.714;2022-08-04T18:59:04;4.65;;;1.42;;
73136;SDS011;61329;45.638;11.714;2022-08-04T19:01:31;2.55;;;1.10;;
73136;SDS011;61329;45.638;11.714;2022-08-04T19:03:57;3.70;;;1.10;;
73136;SDS011;61329;45.638;11.714;2022-08-04T19:06:23;3.80;;;1.17;;
73136;SDS011;61329;45.638;11.714;2022-08-04T19:08:57;2.40;;;1.00;;
73136;SDS011;61329;45.638;11.714;2022-08-04T19:11:23;5.13;;;0.98;;
73136;SDS011;61329;45.638;11.714;2022-08-04T19:13:49;3.43;;;1.00;;
73136;SDS011;61329;45.638;11.714;2022-08-04T19:16:16;3.08;;;0.85;;
73136;SDS011;61329;45.638;11.714;2022-08-04T19:18:42;4.18;;;1.02;;
73136;SDS011;61329;45.638;11.714;2022-08-04T19:21:08;2.88;;;0.90;;
73136;SDS011;61329;45.638;11.714;2022-08-04T19:23:35;3.88;;;1.15;;
73136;SDS011;61329;45.638;11.714;2022-08-04T19:26:02;2.40;;;0.80;;
73136;SDS011;61329;45.638;11.714;2022-08-04T19:28:32;2.40;;;0.90;;
73136;SDS011;61329;45.638;11.714;2022-08-04T19:31:01;3.05;;;1.00;;
73136;SDS011;61329;45.638;11.714;2022-08-04T19:33:29;2.83;;;0.90;;
73136;SDS011;61329;45.638;11.714;2022-08-04T19:35:56;3.00;;;0.80;;
73136;SDS011;61329;45.638;11.714;2022-08-04T19:38:22;2.05;;;0.90;;
73136;SDS011;61329;45.638;11.714;2022-08-04T19:40:48;2.50;;;1.00;;
73136;SDS011;61329;45.638;11.714;2022-08-04T19:43:15;3.47;;;0.90;;
73136;SDS011;61329;45.638;11.714;2022-08-04T19:45:41;2.92;;;1.00;;
73136;SDS011;61329;45.638;11.714;2022-08-04T19:48:08;2.83;;;1.00;;
73136;SDS011;61329;45.638;11.714;2022-08-04T19:50:37;1.75;;;0.90;;
73136;SDS011;61329;45.638;11.714;2022-08-04T19:53:10;4.03;;;1.13;;
73136;SDS011;61329;45.638;11.714;2022-08-04T19:55:42;3.08;;;0.90;;
73136;SDS011;61329;45.638;11.714;2022-08-04T19:58:11;3.10;;;0.90;;